Time;durP1;ratioP1;P1;durP2;ratioP2;P2;SDS_P1;SDS_P2;PMS_P1;PMS_P2;Temp;Humidity;BMP_temperature;BMP_pressure;BME280_temperature;BME280_humidity;BME280_pressure;Samples;Min_cycle;Max_cycle;Signal;HPM_P1;HPM_P2
2021/07/09 00:01:21;;;;;;;26.58;21.67;;;;;;;;;;5018402;28;20217;-71
2021/07/09 00:03:46;;;;;;;32.67;22.73;;;;;;;;;;5015623;28;20198;-71
2021/07/09 00:06:12;;;;;;;34.25;22.42;;;;;;;;;;5020507;28;20196;-71
2021/07/09 00:08:38;;;;;;;33.33;23.25;;;;;;;;;;5014943;28;20182;-71
2021/07/09 00:11:03;;;;;;;33.15;23.38;;;;;;;;;;5017293;28;20183;-71
2021/07/09 00:13:29;;;;;;;34.28;22.98;;;;;;;;;;5024086;28;20655;-71
2021/07/09 00:15:54;;;;;;;30.63;22.92;;;;;;;;;;5017631;28;20606;-71
2021/07/09 00:18:19;;;;;;;28.80;22.23;;;;;;;;;;5020688;28;20280;-71
2021/07/09 00:20:45;;;;;;;29.80;23.70;;;;;;;;;;5009047;28;20191;-71
2021/07/09 00:23:10;;;;;;;37.17;25.60;;;;;;;;;;5021887;28;20236;-71
2021/07/09 00:25:36;;;;;;;38.63;25.10;;;;;;;;;;5007213;28;20210;-71
2021/07/09 00:28:02;;;;;;;36.50;24.80;;;;;;;;;;5022179;28;20175;-71
2021/07/09 00:30:28;;;;;;;36.47;25.17;;;;;;;;;;5015406;28;20194;-71
2021/07/09 00:32:53;;;;;;;31.83;23.35;;;;;;;;;;5022572;28;20272;-71
2021/07/09 00:35:19;;;;;;;37.47;24.20;;;;;;;;;;4994829;28;20670;-71
2021/07/09 00:37:44;;;;;;;32.85;24.42;;;;;;;;;;5021462;28;20181;-71
2021/07/09 00:40:10;;;;;;;34.20;25.63;;;;;;;;;;5015424;28;20387;-71
2021/07/09 00:42:35;;;;;;;37.58;25.85;;;;;;;;;;4999717;28;20261;-71
2021/07/09 00:45:04;;;;;;;38.42;26.02;;;;;;;;;;5017554;28;20725;-71
2021/07/09 00:47:29;;;;;;;35.97;25.63;;;;;;;;;;5011314;28;20281;-71
2021/07/09 00:49:55;;;;;;;34.90;24.38;;;;;;;;;;5023377;28;20587;-71
2021/07/09 00:52:20;;;;;;;38.33;25.52;;;;;;;;;;5010864;28;20201;-71
2021/07/09 00:54:45;;;;;;;36.47;24.85;;;;;;;;;;5017051;28;20282;-71
2021/07/09 00:57:12;;;;;;;37.60;25.05;;;;;;;;;;5010786;28;20273;-71
2021/07/09 00:59:38;;;;;;;30.83;23.67;;;;;;;;;;5004093;28;20218;-71
2021/07/09 01:02:04;;;;;;;35.25;26.05;;;;;;;;;;5010875;28;20194;-71
2021/07/09 01:04:30;;;;;;;37.72;25.02;;;;;;;;;;5020510;28;20182;-71
2021/07/09 01:06:55;;;;;;;33.50;25.23;;;;;;;;;;5010545;28;20198;-71
2021/07/09 01:09:20;;;;;;;33.00;24.63;;;;;;;;;;5018616;28;20190;-71
2021/07/09 01:11:50;;;;;;;36.33;24.52;;;;;;;;;;5015460;28;20287;-71
2021/07/09 01:14:17;;;;;;;36.22;24.58;;;;;;;;;;5019615;28;20208;-71
2021/07/09 01:16:42;;;;;;;38.45;25.98;;;;;;;;;;5021386;28;20531;-71
2021/07/09 01:19:08;;;;;;;34.65;25.35;;;;;;;;;;4994769;28;20248;-71
2021/07/09 01:21:33;;;;;;;37.63;23.52;;;;;;;;;;5020328;28;20594;-71
2021/07/09 01:24:04;;;;;;;34.83;24.95;;;;;;;;;;5006936;28;20784;-71
2021/07/09 01:26:30;;;;;;;39.35;25.23;;;;;;;;;;5018430;28;20224;-71
2021/07/09 01:28:55;;;;;;;37.30;24.98;;;;;;;;;;5012561;28;20934;-71
2021/07/09 01:31:21;;;;;;;33.55;23.80;;;;;;;;;;5000891;28;20186;-71
2021/07/09 01:33:46;;;;;;;35.63;24.83;;;;;;;;;;5009265;28;20229;-71
2021/07/09 01:36:11;;;;;;;38.47;25.13;;;;;;;;;;5020258;28;20234;-71
2021/07/09 01:38:37;;;;;;;36.95;25.23;;;;;;;;;;4994721;28;20213;-71
2021/07/09 01:41:02;;;;;;;31.60;22.02;;;;;;;;;;5017119;28;20606;-71
2021/07/09 01:43:28;;;;;;;35.60;24.42;;;;;;;;;;4992846;28;20190;-71
2021/07/09 01:45:54;;;;;;;33.30;23.55;;;;;;;;;;5020923;28;20316;-71
2021/07/09 01:48:20;;;;;;;34.80;23.27;;;;;;;;;;5017079;28;21074;-71
2021/07/09 01:50:45;;;;;;;37.33;24.23;;;;;;;;;;5016006;28;20186;-71
2021/07/09 01:53:10;;;;;;;31.95;22.30;;;;;;;;;;5022583;28;20254;-71
2021/07/09 01:55:36;;;;;;;35.45;23.15;;;;;;;;;;4995481;28;20654;-71
2021/07/09 01:58:01;;;;;;;30.75;22.20;;;;;;;;;;4999670;28;20192;-71
2021/07/09 02:00:27;;;;;;;30.23;22.92;;;;;;;;;;5012065;28;20213;-71
2021/07/09 02:02:53;;;;;;;33.65;23.15;;;;;;;;;;5024335;28;20559;-71
2021/07/09 02:05:20;;;;;;;39.40;24.73;;;;;;;;;;5012373;28;20272;-71
2021/07/09 02:07:48;;;;;;;36.83;23.35;;;;;;;;;;5024282;28;20194;-71
2021/07/09 02:10:15;;;;;;;32.70;23.60;;;;;;;;;;5013624;28;20194;-71
2021/07/09 02:12:41;;;;;;;36.45;23.55;;;;;;;;;;5021102;28;20182;-71
2021/07/09 02:15:11;;;;;;;36.35;23.92;;;;;;;;;;5015996;28;20228;-71
2021/07/09 02:17:37;;;;;;;36.60;23.50;;;;;;;;;;5026223;28;20186;-70
2021/07/09 02:20:05;;;;;;;39.97;24.52;;;;;;;;;;5020179;28;20190;-70
2021/07/09 02:22:31;;;;;;;35.60;23.08;;;;;;;;;;5009948;28;20573;-70
2021/07/09 02:24:56;;;;;;;32.35;23.58;;;;;;;;;;5006386;28;20284;-70
2021/07/09 02:27:22;;;;;;;36.92;24.27;;;;;;;;;;5010121;28;20249;-70
2021/07/09 02:29:48;;;;;;;33.85;23.83;;;;;;;;;;5022940;28;20625;-71
2021/07/09 02:32:13;;;;;;;35.72;23.30;;;;;;;;;;4997078;28;20611;-70
2021/07/09 02:34:40;;;;;;;35.33;24.85;;;;;;;;;;5027065;28;20201;-70
2021/07/09 02:37:07;;;;;;;29.40;22.77;;;;;;;;;;5001824;28;20189;-70
2021/07/09 02:39:33;;;;;;;32.22;23.23;;;;;;;;;;5028333;28;20549;-70
2021/07/09 02:41:59;;;;;;;37.85;22.98;;;;;;;;;;5000587;28;20243;-71
2021/07/09 02:44:26;;;;;;;39.28;23.98;;;;;;;;;;5028671;28;20198;-71
2021/07/09 02:46:52;;;;;;;32.80;22.90;;;;;;;;;;5020022;28;20248;-71
2021/07/09 02:49:19;;;;;;;38.85;24.27;;;;;;;;;;5026099;28;20242;-70
2021/07/09 02:51:45;;;;;;;33.80;21.35;;;;;;;;;;5024113;28;20574;-70
2021/07/09 02:54:10;;;;;;;37.03;22.95;;;;;;;;;;4999911;28;20212;-70
2021/07/09 02:56:36;;;;;;;34.60;23.20;;;;;;;;;;5007328;28;20194;-70
2021/07/09 02:59:01;;;;;;;38.28;24.67;;;;;;;;;;5017522;28;20657;-71
2021/07/09 03:01:27;;;;;;;39.63;24.42;;;;;;;;;;5026348;28;20288;-71
2021/07/09 03:03:53;;;;;;;38.83;23.95;;;;;;;;;;5016079;28;20630;-70
2021/07/09 03:06:20;;;;;;;34.67;24.17;;;;;;;;;;5024539;28;20230;-70
2021/07/09 03:08:46;;;;;;;38.40;24.23;;;;;;;;;;5012438;28;20186;-70
2021/07/09 03:11:11;;;;;;;39.22;24.38;;;;;;;;;;5024245;28;20549;-70
2021/07/09 03:13:37;;;;;;;39.47;24.90;;;;;;;;;;5017323;28;20305;-70
2021/07/09 03:16:02;;;;;;;36.47;24.17;;;;;;;;;;5020253;28;20181;-71
2021/07/09 03:18:28;;;;;;;36.58;23.20;;;;;;;;;;5015001;28;21167;-71
2021/07/09 03:20:54;;;;;;;37.35;23.67;;;;;;;;;;5025288;28;20189;-70
2021/07/09 03:23:20;;;;;;;37.25;23.80;;;;;;;;;;5021882;28;20221;-70
2021/07/09 03:25:45;;;;;;;39.55;24.90;;;;;;;;;;5014059;28;20217;-71
2021/07/09 03:28:11;;;;;;;43.10;25.65;;;;;;;;;;5020668;28;20190;-71
2021/07/09 03:30:36;;;;;;;38.08;23.95;;;;;;;;;;5012277;28;20228;-71
2021/07/09 03:33:02;;;;;;;42.08;25.98;;;;;;;;;;5008190;28;20287;-71
2021/07/09 03:35:27;;;;;;;40.67;25.58;;;;;;;;;;5011817;28;20186;-71
2021/07/09 03:37:53;;;;;;;43.42;25.23;;;;;;;;;;5021157;28;20520;-70
2021/07/09 03:40:18;;;;;;;45.00;25.90;;;;;;;;;;5005630;28;20725;-70
2021/07/09 03:42:43;;;;;;;43.97;25.35;;;;;;;;;;5009225;28;20208;-70
2021/07/09 03:45:09;;;;;;;41.53;26.65;;;;;;;;;;5015603;28;20205;-70
2021/07/09 03:47:35;;;;;;;45.17;26.17;;;;;;;;;;5025240;28;20222;-70
2021/07/09 03:50:00;;;;;;;37.35;24.55;;;;;;;;;;5011042;28;20197;-71
2021/07/09 03:52:25;;;;;;;43.97;26.17;;;;;;;;;;5022738;28;20186;-71
2021/07/09 03:54:52;;;;;;;42.38;25.95;;;;;;;;;;5019225;28;20293;-71
2021/07/09 03:57:17;;;;;;;44.10;26.23;;;;;;;;;;4995440;28;20280;-70
2021/07/09 03:59:42;;;;;;;45.33;25.63;;;;;;;;;;5021436;28;20206;-71
2021/07/09 04:02:08;;;;;;;40.25;24.95;;;;;;;;;;5012157;28;20544;-71
2021/07/09 04:04:33;;;;;;;46.22;27.20;;;;;;;;;;5015511;28;20713;-71
2021/07/09 04:06:58;;;;;;;41.03;26.13;;;;;;;;;;5017748;28;20513;-72
2021/07/09 04:09:24;;;;;;;35.30;23.88;;;;;;;;;;5022435;28;20194;-71
2021/07/09 04:11:49;;;;;;;41.78;25.30;;;;;;;;;;5013822;28;20197;-71
2021/07/09 04:14:15;;;;;;;37.05;25.10;;;;;;;;;;5024429;28;20213;-71
2021/07/09 04:16:40;;;;;;;40.80;25.85;;;;;;;;;;4996573;28;20200;-71
2021/07/09 04:19:05;;;;;;;43.70;25.90;;;;;;;;;;5021536;28;20186;-71
2021/07/09 04:21:31;;;;;;;38.28;25.15;;;;;;;;;;5009633;28;20205;-71
2021/07/09 04:23:56;;;;;;;42.83;26.10;;;;;;;;;;5012091;28;20182;-71
2021/07/09 04:26:21;;;;;;;38.45;24.65;;;;;;;;;;5024973;28;20724;-71
2021/07/09 04:28:47;;;;;;;37.25;24.63;;;;;;;;;;5015728;28;20594;-71
2021/07/09 04:31:12;;;;;;;40.95;25.20;;;;;;;;;;5025022;28;20220;-71
2021/07/09 04:33:40;;;;;;;38.38;24.38;;;;;;;;;;5012958;28;20209;-71
2021/07/09 04:36:05;;;;;;;35.45;24.13;;;;;;;;;;5020549;28;20201;-71
2021/07/09 04:38:30;;;;;;;39.50;24.63;;;;;;;;;;5012468;28;20187;-70
2021/07/09 04:40:56;;;;;;;40.47;24.30;;;;;;;;;;5023476;28;20186;-71
2021/07/09 04:43:21;;;;;;;35.88;24.27;;;;;;;;;;4995065;28;20182;-71
2021/07/09 04:45:46;;;;;;;45.45;26.65;;;;;;;;;;5025364;28;20507;-72
2021/07/09 04:48:12;;;;;;;39.53;25.95;;;;;;;;;;5014228;28;20225;-71
2021/07/09 04:50:37;;;;;;;37.78;25.30;;;;;;;;;;5024613;28;20648;-71
2021/07/09 04:53:03;;;;;;;35.83;25.65;;;;;;;;;;5021088;28;20214;-71
2021/07/09 04:55:29;;;;;;;36.45;25.63;;;;;;;;;;5016058;28;20277;-71
2021/07/09 04:57:54;;;;;;;37.17;25.42;;;;;;;;;;5009650;28;20302;-71
2021/07/09 05:00:20;;;;;;;38.10;25.20;;;;;;;;;;5014140;28;20218;-71
2021/07/09 05:02:45;;;;;;;37.53;24.35;;;;;;;;;;5020808;28;20545;-71
2021/07/09 05:05:14;;;;;;;39.67;25.23;;;;;;;;;;5012173;28;20216;-70
2021/07/09 05:07:39;;;;;;;34.70;23.90;;;;;;;;;;5024608;28;20530;-71
2021/07/09 05:10:06;;;;;;;31.02;21.88;;;;;;;;;;5015001;28;20195;-71
2021/07/09 05:12:31;;;;;;;39.53;25.92;;;;;;;;;;5006321;28;20217;-71
2021/07/09 05:14:57;;;;;;;38.13;25.17;;;;;;;;;;5013352;28;20297;-71
2021/07/09 05:17:22;;;;;;;38.38;26.05;;;;;;;;;;5020110;28;20182;-71
2021/07/09 05:19:47;;;;;;;38.75;25.92;;;;;;;;;;5018315;28;20282;-70
2021/07/09 05:22:13;;;;;;;39.10;24.70;;;;;;;;;;5025102;28;20299;-70
2021/07/09 05:24:38;;;;;;;37.72;25.45;;;;;;;;;;5026792;28;20552;-71
2021/07/09 05:27:05;;;;;;;33.92;23.67;;;;;;;;;;5012687;28;20197;-72
2021/07/09 05:29:30;;;;;;;35.75;23.50;;;;;;;;;;5023323;28;20190;-70
2021/07/09 05:31:56;;;;;;;32.40;22.95;;;;;;;;;;5013338;28;20186;-70
2021/07/09 05:34:21;;;;;;;33.75;23.25;;;;;;;;;;5022219;28;20209;-69
2021/07/09 05:36:47;;;;;;;35.92;24.40;;;;;;;;;;4997128;28;20211;-70
2021/07/09 05:39:15;;;;;;;32.95;24.20;;;;;;;;;;5005742;28;20210;-71
2021/07/09 05:41:41;;;;;;;29.83;24.00;;;;;;;;;;5013964;28;20182;-71
2021/07/09 05:44:06;;;;;;;35.30;24.80;;;;;;;;;;5007743;28;20521;-71
2021/07/09 05:46:33;;;;;;;42.28;25.50;;;;;;;;;;5015454;28;20804;-70
2021/07/09 05:48:58;;;;;;;35.35;24.48;;;;;;;;;;5022569;28;20776;-71
2021/07/09 05:51:23;;;;;;;37.83;24.88;;;;;;;;;;5009666;28;20269;-71
2021/07/09 05:53:49;;;;;;;37.10;25.17;;;;;;;;;;5019103;28;20264;-71
2021/07/09 05:56:14;;;;;;;38.72;24.85;;;;;;;;;;5019900;28;20190;-70
2021/07/09 05:58:39;;;;;;;37.75;24.33;;;;;;;;;;4993733;28;20190;-71
2021/07/09 06:01:05;;;;;;;38.05;25.20;;;;;;;;;;5018515;28;20214;-71
2021/07/09 06:03:30;;;;;;;35.15;23.52;;;;;;;;;;5011830;28;20244;-71
2021/07/09 06:05:55;;;;;;;38.30;25.58;;;;;;;;;;5018020;28;20197;-71
2021/07/09 06:08:21;;;;;;;36.85;25.10;;;;;;;;;;5010360;28;20223;-71
2021/07/09 06:10:46;;;;;;;35.13;25.20;;;;;;;;;;5019797;28;20186;-71
2021/07/09 06:13:12;;;;;;;34.63;23.20;;;;;;;;;;5011259;28;20682;-70
2021/07/09 06:15:37;;;;;;;34.95;24.63;;;;;;;;;;5020322;28;20277;-70
2021/07/09 06:18:03;;;;;;;34.80;23.92;;;;;;;;;;5013151;28;20190;-71
2021/07/09 06:20:28;;;;;;;36.28;24.25;;;;;;;;;;5004515;28;20277;-70
2021/07/09 06:22:53;;;;;;;36.28;24.40;;;;;;;;;;5019110;28;20663;-70
2021/07/09 06:25:19;;;;;;;33.88;23.85;;;;;;;;;;4990572;28;20200;-70
2021/07/09 06:27:44;;;;;;;32.00;22.92;;;;;;;;;;5022505;28;20196;-70
2021/07/09 06:30:11;;;;;;;34.22;24.08;;;;;;;;;;4305528;28;10000858;-70
2021/07/09 06:32:37;;;;;;;31.45;22.60;;;;;;;;;;5019600;28;20194;-70
2021/07/09 06:35:04;;;;;;;29.15;22.00;;;;;;;;;;5005115;28;20201;-70
2021/07/09 06:37:30;;;;;;;35.53;23.15;;;;;;;;;;5021575;28;20205;-70
2021/07/09 06:39:55;;;;;;;34.90;22.92;;;;;;;;;;5009831;28;20185;-70
2021/07/09 06:42:21;;;;;;;33.28;20.85;;;;;;;;;;5021020;28;20657;-72
2021/07/09 06:44:46;;;;;;;34.00;22.85;;;;;;;;;;5007221;28;20186;-71
2021/07/09 06:47:12;;;;;;;32.22;21.08;;;;;;;;;;5014050;28;20257;-71
2021/07/09 06:49:37;;;;;;;32.83;23.25;;;;;;;;;;4991650;28;20193;-71
2021/07/09 06:52:02;;;;;;;30.35;22.35;;;;;;;;;;4999980;28;20190;-72
2021/07/09 06:54:28;;;;;;;33.15;21.55;;;;;;;;;;5016668;28;20582;-71
2021/07/09 06:56:53;;;;;;;29.33;21.42;;;;;;;;;;5009845;28;20182;-72
2021/07/09 06:59:18;;;;;;;31.33;21.90;;;;;;;;;;5013314;28;20201;-71
2021/07/09 07:01:44;;;;;;;26.50;20.50;;;;;;;;;;5007983;28;20231;-71
2021/07/09 07:04:09;;;;;;;29.05;20.85;;;;;;;;;;5014383;28;20186;-71
2021/07/09 07:06:36;;;;;;;29.83;22.05;;;;;;;;;;5006476;28;20222;-71
2021/07/09 07:09:01;;;;;;;32.03;21.50;;;;;;;;;;5015311;28;20216;-71
2021/07/09 07:11:26;;;;;;;33.30;21.02;;;;;;;;;;5009500;28;20194;-71
2021/07/09 07:13:52;;;;;;;32.38;21.92;;;;;;;;;;5016002;28;20218;-71
2021/07/09 07:16:17;;;;;;;32.22;21.27;;;;;;;;;;4988438;28;20191;-71
2021/07/09 07:18:42;;;;;;;34.20;23.00;;;;;;;;;;5019078;28;20197;-71
2021/07/09 07:21:08;;;;;;;35.55;23.63;;;;;;;;;;5009489;28;20197;-71
2021/07/09 07:23:33;;;;;;;30.92;21.33;;;;;;;;;;5018721;28;20269;-71
2021/07/09 07:25:58;;;;;;;25.35;20.00;;;;;;;;;;5022923;28;20501;-72
2021/07/09 07:28:24;;;;;;;31.88;20.70;;;;;;;;;;5012285;28;20198;-70
2021/07/09 07:30:49;;;;;;;27.20;19.60;;;;;;;;;;5018160;28;20232;-71
2021/07/09 07:33:14;;;;;;;31.23;20.60;;;;;;;;;;5011217;28;20796;-71
2021/07/09 07:35:41;;;;;;;27.98;20.35;;;;;;;;;;5023088;28;20193;-71
2021/07/09 07:38:07;;;;;;;28.40;20.05;;;;;;;;;;4991495;28;20671;-71
2021/07/09 07:40:34;;;;;;;30.83;20.63;;;;;;;;;;5011639;28;20771;-71
2021/07/09 07:42:59;;;;;;;25.88;20.25;;;;;;;;;;5011859;28;20197;-71
2021/07/09 07:45:25;;;;;;;27.23;19.80;;;;;;;;;;5020414;28;20630;-71
2021/07/09 07:47:50;;;;;;;26.55;19.65;;;;;;;;;;5012574;28;20710;-71
2021/07/09 07:50:21;;;;;;;25.83;18.48;;;;;;;;;;5022783;28;20220;-71
2021/07/09 07:52:46;;;;;;;28.52;19.08;;;;;;;;;;5013246;28;20190;-71
2021/07/09 07:55:12;;;;;;;26.92;19.50;;;;;;;;;;5018906;28;20685;-71
2021/07/09 07:57:37;;;;;;;23.90;17.98;;;;;;;;;;5019912;28;20733;-71
2021/07/09 08:00:04;;;;;;;23.55;16.55;;;;;;;;;;5011620;28;20283;-71
2021/07/09 08:02:30;;;;;;;22.50;15.32;;;;;;;;;;5023266;28;20221;-71
2021/07/09 08:04:55;;;;;;;20.38;15.73;;;;;;;;;;5009424;28;20628;-71
2021/07/09 08:07:20;;;;;;;22.02;16.00;;;;;;;;;;5019098;28;20186;-71
2021/07/09 08:09:46;;;;;;;23.15;16.75;;;;;;;;;;5011500;28;20734;-71
2021/07/09 08:12:12;;;;;;;21.73;16.20;;;;;;;;;;5002571;28;20179;-71
2021/07/09 08:14:37;;;;;;;20.25;16.00;;;;;;;;;;5010838;28;20208;-71
2021/07/09 08:17:04;;;;;;;21.48;16.63;;;;;;;;;;5019651;28;20194;-71
2021/07/09 08:19:29;;;;;;;24.75;16.95;;;;;;;;;;5010821;28;20197;-71
2021/07/09 08:21:55;;;;;;;24.98;17.42;;;;;;;;;;5016043;28;20659;-71
2021/07/09 08:24:20;;;;;;;21.50;17.17;;;;;;;;;;5010493;28;20198;-71
2021/07/09 08:26:46;;;;;;;24.80;16.70;;;;;;;;;;5021426;28;20197;-70
2021/07/09 08:29:11;;;;;;;28.40;17.40;;;;;;;;;;5016430;28;20289;-71
2021/07/09 08:31:37;;;;;;;20.92;17.25;;;;;;;;;;5009352;28;20187;-71
2021/07/09 08:34:03;;;;;;;25.98;17.58;;;;;;;;;;5019875;28;20273;-71
2021/07/09 08:36:28;;;;;;;23.90;16.67;;;;;;;;;;5010894;28;20187;-71
2021/07/09 08:38:54;;;;;;;24.83;16.15;;;;;;;;;;5019482;28;20756;-71
2021/07/09 08:41:20;;;;;;;22.75;15.70;;;;;;;;;;4988535;28;20884;-71
2021/07/09 08:43:45;;;;;;;20.98;14.65;;;;;;;;;;5018767;28;20212;-70
2021/07/09 08:46:12;;;;;;;17.05;14.13;;;;;;;;;;5009194;28;20185;-70
2021/07/09 08:48:37;;;;;;;20.85;13.98;;;;;;;;;;5017237;28;20238;-71
2021/07/09 08:51:03;;;;;;;20.70;15.07;;;;;;;;;;5010887;28;20196;-71
2021/07/09 08:53:29;;;;;;;20.02;14.88;;;;;;;;;;5017038;28;20206;-71
2021/07/09 08:55:56;;;;;;;18.33;13.30;;;;;;;;;;5016243;28;20799;-71
2021/07/09 08:58:21;;;;;;;21.88;15.90;;;;;;;;;;5015332;28;20672;-70
2021/07/09 09:00:47;;;;;;;18.63;14.63;;;;;;;;;;5021087;28;20657;-71
2021/07/09 09:03:16;;;;;;;19.75;14.20;;;;;;;;;;5008287;28;20186;-71
2021/07/09 09:05:42;;;;;;;20.33;13.85;;;;;;;;;;5017062;28;20190;-70
2021/07/09 09:08:08;;;;;;;20.08;13.60;;;;;;;;;;5006880;28;20622;-69
2021/07/09 09:10:45;;;;;;;18.73;14.10;;;;;;;;;;5016360;28;20191;-69
2021/07/09 09:13:32;;;;;;;22.10;14.18;;;;;;;;;;5009241;28;20542;-71
2021/07/09 09:16:15;;;;;;;17.77;12.43;;;;;;;;;;5013911;28;20190;-71
2021/07/09 09:18:49;;;;;;;16.20;12.07;;;;;;;;;;5012496;28;20190;-71
2021/07/09 09:21:15;;;;;;;15.70;10.57;;;;;;;;;;5017822;28;20190;-69
2021/07/09 09:23:54;;;;;;;10.80;7.78;;;;;;;;;;4992815;28;20292;-70
2021/07/09 09:26:53;;;;;;;13.98;8.38;;;;;;;;;;5013453;28;20193;-70
2021/07/09 09:29:24;;;;;;;14.10;10.52;;;;;;;;;;5007455;28;20189;-70
2021/07/09 09:31:52;;;;;;;12.07;8.98;;;;;;;;;;5018740;28;20204;-69
2021/07/09 09:34:37;;;;;;;11.98;8.75;;;;;;;;;;5010176;28;20218;-69
2021/07/09 09:37:03;;;;;;;11.35;9.18;;;;;;;;;;4996723;28;20585;-70
2021/07/09 09:39:29;;;;;;;12.05;10.00;;;;;;;;;;5012628;28;20222;-70
2021/07/09 09:42:07;;;;;;;13.27;9.65;;;;;;;;;;5015924;28;20230;-71
2021/07/09 09:44:33;;;;;;;13.30;10.07;;;;;;;;;;5011319;28;20479;-70
2021/07/09 09:47:13;;;;;;;12.75;10.70;;;;;;;;;;4998175;28;20224;-71
2021/07/09 09:49:38;;;;;;;16.38;12.15;;;;;;;;;;5009982;28;20197;-70
2021/07/09 09:52:04;;;;;;;16.17;11.73;;;;;;;;;;4997555;28;20533;-68
2021/07/09 09:54:34;;;;;;;16.17;10.88;;;;;;;;;;5007110;28;20210;-70
2021/07/09 09:56:59;;;;;;;9.88;7.72;;;;;;;;;;5018500;28;20193;-73
2021/07/09 09:59:26;;;;;;;17.60;12.40;;;;;;;;;;5007386;28;20189;-70
2021/07/09 10:02:03;;;;;;;15.27;10.60;;;;;;;;;;5018432;28;20186;-70
2021/07/09 10:04:30;;;;;;;14.07;10.18;;;;;;;;;;5003955;28;20188;-70
2021/07/09 10:06:57;;;;;;;15.23;10.15;;;;;;;;;;5000852;28;20196;-69
2021/07/09 10:09:23;;;;;;;14.25;10.80;;;;;;;;;;5019073;28;20190;-70
2021/07/09 10:11:49;;;;;;;13.80;10.68;;;;;;;;;;4991342;28;20278;-70
2021/07/09 10:14:17;;;;;;;12.23;9.55;;;;;;;;;;5011731;28;20207;-70
2021/07/09 10:16:48;;;;;;;9.63;7.55;;;;;;;;;;5009565;28;20186;-71
2021/07/09 10:19:21;;;;;;;7.95;6.65;;;;;;;;;;5021111;28;20193;-70
2021/07/09 10:21:47;;;;;;;8.07;6.85;;;;;;;;;;5010127;28;20187;-70
2021/07/09 10:24:15;;;;;;;11.20;7.05;;;;;;;;;;5022359;28;20333;-70
2021/07/09 10:26:43;;;;;;;8.18;6.68;;;;;;;;;;5012665;28;20186;-70
2021/07/09 10:29:16;;;;;;;9.77;6.53;;;;;;;;;;5021455;28;20185;-70
2021/07/09 10:31:43;;;;;;;7.97;6.50;;;;;;;;;;5011785;28;20193;-70
2021/07/09 10:34:30;;;;;;;8.07;6.68;;;;;;;;;;5022330;28;20249;-70
2021/07/09 10:37:30;;;;;;;8.95;6.70;;;;;;;;;;5013362;28;20266;-70
2021/07/09 10:40:11;;;;;;;8.88;7.18;;;;;;;;;;5016872;28;20265;-71
2021/07/09 10:42:42;;;;;;;11.23;6.80;;;;;;;;;;4996367;28;20269;-72
2021/07/09 10:45:19;;;;;;;9.80;6.70;;;;;;;;;;5021572;28;20177;-71
2021/07/09 10:48:08;;;;;;;8.15;6.88;;;;;;;;;;5006275;28;20322;-71
2021/07/09 10:50:42;;;;;;;9.98;7.20;;;;;;;;;;5008486;28;20289;-73
2021/07/09 10:53:10;;;;;;;11.07;7.30;;;;;;;;;;5011818;28;20182;-71
2021/07/09 10:55:43;;;;;;;9.57;7.80;;;;;;;;;;5020796;28;20186;-71
2021/07/09 10:58:18;;;;;;;10.15;7.60;;;;;;;;;;5012805;28;20205;-72
2021/07/09 11:00:44;;;;;;;7.47;6.65;;;;;;;;;;5020699;28;20202;-72
2021/07/09 11:03:11;;;;;;;7.07;6.28;;;;;;;;;;5014926;28;20190;-72
2021/07/09 11:05:42;;;;;;;8.27;6.20;;;;;;;;;;5025371;28;20178;-71
2021/07/09 11:08:32;;;;;;;10.00;6.55;;;;;;;;;;5018189;28;20571;-73
2021/07/09 11:11:02;;;;;;;9.90;6.75;;;;;;;;;;5025652;28;20166;-72
2021/07/09 11:13:40;;;;;;;7.80;6.72;;;;;;;;;;5014301;28;20259;-71
2021/07/09 11:16:25;;;;;;;5.95;4.90;;;;;;;;;;5007839;28;20508;-72
2021/07/09 11:18:56;;;;;;;6.22;5.15;;;;;;;;;;4995859;28;20202;-77
2021/07/09 11:21:30;;;;;;;7.43;4.65;;;;;;;;;;5027510;28;20233;-73
2021/07/09 11:24:17;;;;;;;7.50;4.90;;;;;;;;;;5017040;28;20550;-72
2021/07/09 11:26:48;;;;;;;4.78;4.25;;;;;;;;;;5027274;28;20166;-71
2021/07/09 11:29:29;;;;;;;6.05;4.85;;;;;;;;;;5015484;28;20189;-72
2021/07/09 11:32:02;;;;;;;5.68;5.00;;;;;;;;;;5026549;28;20244;-74
2021/07/09 11:34:30;;;;;;;4.95;4.20;;;;;;;;;;5016984;28;20712;-71
2021/07/09 11:36:58;;;;;;;6.88;4.05;;;;;;;;;;5015575;28;20603;-74
2021/07/09 11:39:25;;;;;;;5.38;4.85;;;;;;;;;;5013369;28;20650;-72
2021/07/09 11:42:10;;;;;;;4.85;3.92;;;;;;;;;;5025376;28;20178;-71
2021/07/09 11:44:35;;;;;;;4.53;3.20;;;;;;;;;;5011605;28;20190;-73
2021/07/09 11:47:28;;;;;;;4.97;4.15;;;;;;;;;;5025887;28;20597;-72
2021/07/09 11:49:58;;;;;;;5.18;4.22;;;;;;;;;;5028177;28;20205;-72
2021/07/09 11:52:32;;;;;;;6.25;3.90;;;;;;;;;;5045946;28;20204;-72
2021/07/09 11:55:00;;;;;;;7.75;4.30;;;;;;;;;;5030192;28;20623;-71
2021/07/09 11:57:32;;;;;;;4.38;3.53;;;;;;;;;;5044614;28;20224;-70
2021/07/09 12:00:00;;;;;;;5.03;4.50;;;;;;;;;;5014539;28;20350;-72
2021/07/09 12:02:27;;;;;;;5.25;3.75;;;;;;;;;;5047331;28;20205;-75
2021/07/09 12:04:54;;;;;;;4.30;3.90;;;;;;;;;;5040265;28;20586;-71
2021/07/09 12:07:29;;;;;;;5.18;4.00;;;;;;;;;;5031784;28;20666;-72
2021/07/09 12:09:57;;;;;;;5.35;3.90;;;;;;;;;;5026872;28;20182;-70
2021/07/09 12:12:24;;;;;;;4.05;3.65;;;;;;;;;;5033535;28;20200;-69
2021/07/09 12:14:55;;;;;;;3.00;2.67;;;;;;;;;;5043478;28;20217;-71
2021/07/09 12:17:22;;;;;;;4.63;3.55;;;;;;;;;;5039248;28;20740;-71
2021/07/09 12:20:02;;;;;;;5.72;3.65;;;;;;;;;;5045073;28;20235;-69
2021/07/09 12:22:31;;;;;;;4.80;3.90;;;;;;;;;;5030342;28;20228;-71
2021/07/09 12:24:59;;;;;;;3.90;3.47;;;;;;;;;;5043534;28;20199;-69
2021/07/09 12:27:25;;;;;;;6.03;3.72;;;;;;;;;;5038603;28;20216;-69
2021/07/09 12:29:51;;;;;;;5.25;4.28;;;;;;;;;;5043430;28;20688;-70
2021/07/09 12:32:17;;;;;;;4.38;3.83;;;;;;;;;;5036883;28;20185;-70
2021/07/09 12:34:42;;;;;;;5.10;3.63;;;;;;;;;;5043832;28;20757;-71
2021/07/09 12:37:08;;;;;;;5.28;4.05;;;;;;;;;;5032675;28;20200;-72
2021/07/09 12:39:34;;;;;;;6.53;4.47;;;;;;;;;;5039475;28;20272;-71
2021/07/09 12:42:14;;;;;;;5.15;4.40;;;;;;;;;;5044095;28;20658;-71
2021/07/09 12:44:55;;;;;;;4.25;3.65;;;;;;;;;;5041151;28;20197;-73
2021/07/09 12:47:21;;;;;;;4.50;4.00;;;;;;;;;;5048741;28;20200;-71
2021/07/09 12:49:46;;;;;;;6.10;4.10;;;;;;;;;;5036577;28;20606;-71
2021/07/09 12:52:14;;;;;;;7.70;5.15;;;;;;;;;;5047820;28;20504;-72
2021/07/09 12:54:39;;;;;;;6.60;4.65;;;;;;;;;;5036471;28;20209;-71
2021/07/09 12:57:05;;;;;;;6.05;3.95;;;;;;;;;;5044269;28;20508;-71
2021/07/09 12:59:31;;;;;;;5.10;3.92;;;;;;;;;;5036485;28;20645;-71
2021/07/09 13:02:05;;;;;;;5.95;4.30;;;;;;;;;;5045599;28;20182;-72
2021/07/09 13:04:33;;;;;;;6.05;4.10;;;;;;;;;;5032804;28;20659;-70
2021/07/09 13:07:17;;;;;;;4.10;3.70;;;;;;;;;;5024872;28;20180;-71
2021/07/09 13:09:44;;;;;;;4.18;3.78;;;;;;;;;;5034681;28;20199;-71
2021/07/09 13:12:18;;;;;;;5.45;4.18;;;;;;;;;;5041192;28;20653;-70
2021/07/09 13:14:53;;;;;;;4.60;3.67;;;;;;;;;;5031976;28;20245;-71
2021/07/09 13:17:20;;;;;;;4.78;4.22;;;;;;;;;;5050342;28;20224;-72
2021/07/09 13:19:56;;;;;;;6.95;4.68;;;;;;;;;;5033230;28;20224;-71
2021/07/09 13:22:35;;;;;;;4.65;4.03;;;;;;;;;;5048015;28;20185;-71
2021/07/09 13:25:09;;;;;;;5.93;4.63;;;;;;;;;;5033945;28;20193;-71
2021/07/09 13:27:35;;;;;;;7.05;4.22;;;;;;;;;;5043901;28;20200;-69
2021/07/09 13:30:03;;;;;;;6.82;4.47;;;;;;;;;;5032839;28;20197;-72
2021/07/09 13:32:33;;;;;;;6.63;5.10;;;;;;;;;;5044002;28;20209;-72
2021/07/09 13:34:58;;;;;;;5.05;4.28;;;;;;;;;;5033480;28;20236;-71
2021/07/09 13:37:24;;;;;;;6.00;3.60;;;;;;;;;;5046172;28;20634;-71
2021/07/09 13:39:49;;;;;;;3.90;3.25;;;;;;;;;;5041062;28;20215;-71
2021/07/09 13:42:14;;;;;;;4.75;3.40;;;;;;;;;;5032456;28;20649;-70
2021/07/09 13:44:40;;;;;;;5.15;3.67;;;;;;;;;;5042461;28;20641;-71
2021/07/09 13:47:05;;;;;;;5.70;3.65;;;;;;;;;;5017683;28;20185;-70
2021/07/09 13:49:30;;;;;;;7.82;4.00;;;;;;;;;;5021639;28;20230;-71
2021/07/09 13:51:56;;;;;;;4.10;3.47;;;;;;;;;;5014375;28;20188;-70
2021/07/09 13:54:21;;;;;;;3.97;3.38;;;;;;;;;;5020359;28;20202;-71
2021/07/09 13:56:47;;;;;;;8.15;4.25;;;;;;;;;;4999621;28;20701;-70
2021/07/09 13:59:12;;;;;;;8.30;4.05;;;;;;;;;;5021330;28;20241;-71
2021/07/09 14:01:37;;;;;;;9.27;6.22;;;;;;;;;;5014561;28;20258;-70
2021/07/09 14:04:03;;;;;;;9.95;4.18;;;;;;;;;;5017901;28;20276;-70
2021/07/09 14:06:28;;;;;;;7.55;4.07;;;;;;;;;;5014327;28;20182;-70
2021/07/09 14:08:54;;;;;;;7.13;3.95;;;;;;;;;;5018550;28;20185;-70
2021/07/09 14:11:19;;;;;;;5.70;3.78;;;;;;;;;;5002493;28;20592;-73
2021/07/09 14:13:44;;;;;;;5.85;3.70;;;;;;;;;;5010290;28;20607;-70
2021/07/09 14:16:09;;;;;;;6.45;4.38;;;;;;;;;;5019685;28;20190;-71
2021/07/09 14:18:35;;;;;;;7.30;4.60;;;;;;;;;;5009898;28;20235;-71
2021/07/09 14:21:00;;;;;;;7.45;4.45;;;;;;;;;;5018848;28;20269;-71
2021/07/09 14:23:26;;;;;;;4.70;4.13;;;;;;;;;;5008367;28;20377;-70
2021/07/09 14:25:51;;;;;;;5.25;4.75;;;;;;;;;;5021122;28;20637;-70